Silverdale, PA (18962)

1:06 AM EDT on September 02, 2014 (GMT -0400)
Hilltown Township Secondary | Change Station
CLOSE
Current Station
Personal Weather Station
Location: Perkasie, PA
Elevation: 656 ft
Nearby Weather Stations

Elev 656 ft 40.33 °N, 75.26 °W | Updated 0 second ago

Clear
Clear
74.1 °F
Feels Like 72 °F
N
0.0
Wind Variable Wind from SSE
Gusts 0.0 mph

Today
High -- | Low -- °F
--% Chance of Precip.
Yesterday
High -- | Low -- °F
Precip. -- in
6:29 AM 7:31 PM
Waxing Crescent, 47% visible
Pressure 29.94 in
Visibility 10.0 miles
Clouds Clear
Heat Index 72 °F
Dew Point 72 °F
Humidity 94%
Rainfall 0.00 in
Snow Depth Not available.
UV 0.0 out of 12
Pollen 5.60 out of 12
Air Quality Not available.
Flu Activity Not available.
METAR KDYL 020454Z AUTO 19003KT 10SM CLR 23/22 A2995 RMK AO2 SLP137 T02280222 403060211

More Conditions Fewer Conditions

Pressure 29.94 in
Visibility 10.0 miles
Clouds Clear
Heat Index 72 °F
Dew Point 72 °F
Humidity 94%
Rainfall 0.00 in
Snow Depth Not available.
UV 0.0 out of 12
Pollen 5.60 out of 12
Air Quality Not available.
Flu Activity Not available.
METAR KDYL 020454Z AUTO 19003KT 10SM CLR 23/22 A2995 RMK AO2 SLP137 T02280222 403060211

More Conditions Fewer Conditions

10-Day Weather Forecast

Almanac

Astronomy

Sep. 02, 2014 Rise Set
Actual Time 6:29 AM EDT 7:31 PM EDT
Civil Twilight 6:01 AM EDT 7:59 PM EDT
Nautical Twilight 5:28 AM EDT 8:32 PM EDT
Astronomical Twilight 4:53 AM EDT 9:06 PM EDT
Moon 2:12 PM EDT No Moon Set
Length of Visible Light 13h 57m
Length of Day
13h 01m
Tomorrow will be 2m 35s shorter.
Waxing Crescent, 47% of the Moon is Illuminated
Today
Waxing Crescent
Sep 2
First Quarter
Sep 8
Full
Sep 15
Last Quarter
Sep 24
New

Today's Extremes

State Highs State Lows

Community

WunderPhotos

Upload Photos

1,749,575 photos uploaded!

WunderBlogs® & News

Nearby

Snow Depth

Station Depth Elevation
No new snow has been reported.

Earthquake Activity

City Distance Mag. Time & Date
No recent earthquake activity has been reported nearby.
Minimum magnitude displayed is 2.5.

Coastal Water Temperatures

Place Temperature
No Stations Reporting

Nearby Weather Stations